Santa Rosa Beach, FL (32459)

2:47 AM CDT on June 23, 2017 (GMT -0500)
Emerald Shores | | Change Station

Elev 56 ft 30.35 °N, 86.20 °W | Updated 2 minutes ago

Mostly Cloudy
Mostly Cloudy
81.0 °F
Feels Like 91 °F
N
4.0
Wind Variable Wind from SW
Gusts 11.4 mph

Today
High -- | Low -- °F
--% Chance of Precip.
Yesterday
High -- | Low -- °F
Precip. -- in
Pressure 29.97 in
Visibility 10.0 miles
Clouds Overcast 1200 ft
Heat Index 91 °F
Dew Point 81 °F
Humidity 99%
Rainfall 0.00 in
Snow Depth Not available.
5:43 AM 7:50 PM
Waning Crescent, 1% visible
METAR KDTS 230653Z AUTO 16008KT 10SM OVC012 28/28 A2997 RMK AO2 SLP149 T02830278
Pressure 29.97 in
Visibility 10.0 miles
Clouds Overcast 1200 ft
Heat Index 91 °F
Dew Point 81 °F
Humidity 99%
Rainfall 0.00 in
Snow Depth Not available.
5:43 AM 7:50 PM
Waning Crescent, 1% visible
METAR KDTS 230653Z AUTO 16008KT 10SM OVC012 28/28 A2997 RMK AO2 SLP149 T02830278

Get Your Daily Forecast Email!

Thanks for signing up!

Be on the lookout for a verification email in your inbox.

You'll start receiving severe weather alerts in your inbox..

×

10-Day Weather Forecast

Almanac

Astronomy

Jun. 23, 2017 Rise Set
Actual Time
Civil Twilight
Nautical Twilight
Astronomical Twilight
Moon
Length of Visible Light
Length of Day
Tomorrow will be .
, % of the Moon is Illuminated

Today's Extremes

State Highs State Lows

Community

WunderPhotos

Category 6

Welcome to Category 6. This is the collective home for Weather Underground's featured writeups by Dr. Jeff Masters (right), Bob Henson (left), Chris Burt, and other regular contributors.

Nearby

Air Quality

  Air Quality AQ Index Pollutant
Not available.

Snow Depth

Station Depth Elevation

Earthquake Activity

City Distance Mag. Time & Date
Minimum magnitude displayed is 2.5.

Coastal Water Temperatures

Place Temperature

Stations

Nearby Weather Stations

Station Location Temp. Windchill Dew Point Humidity Wind Precip. Elev Updated Type
                   

Watches & Warnings

High Surf Advisory, Coastal Hazard Statement
Issued: 2:10 AM CDT Jun. 23, 2017 – National Weather Service

... High surf advisory remains in effect until 11 am EDT /10 am
CDT/ this morning...
... High rip current risk remains in effect through this evening...

* surf... 4 to 6 feet.

* Timing... through Friday.

* Impacts... minor coastal erosion and life threatening rip
currents.

Precautionary/preparedness actions...

A high surf advisory means that high surf will affect beaches in
the advisory area... producing localized beach erosion and
dangerous swimming conditions.

There is a high risk of rip currents.

Rip currents are powerful channels of water flowing quickly away
from shore.